Terminal Aerodrome Forecast
Issued by NWS

Home | Current Version | Previous Version | Text Only | Print | Product List | Glossary On
Versions: 1 2 3 4 5 6 7 8 9 10 11 12 13 14 15 16
000
FTUS45 KRIW 271730
TAFCPR
TAF
KCPR 271730Z 2718/2818 21008KT P6SM SKC
     FM272100 06008KT P6SM VCTS SCT080CB SCT120
     FM280200 09012G18KT P6SM VCTS SCT070CB BKN120
     FM280700 10009KT P6SM VCSH FEW035 SCT080=

USA.gov is the U.S. government's official web portal to all federal, state and local government web resources and services.